createdAt,value
2022-09-23T00:01:04.961Z,78.50
2022-09-23T00:03:32.949Z,78.44
2022-09-23T00:06:01.628Z,78.55
2022-09-23T00:08:28.825Z,78.91
2022-09-23T00:10:55.879Z,78.94
2022-09-23T00:13:24.675Z,80.11
2022-09-23T00:15:51.752Z,80.32
2022-09-23T00:18:18.354Z,80.14
2022-09-23T00:20:45.202Z,79.68
2022-09-23T00:23:11.830Z,76.48
2022-09-23T00:25:38.419Z,76.40
2022-09-23T00:28:05.252Z,76.63
2022-09-23T00:30:32.407Z,75.82
2022-09-23T00:32:58.906Z,75.91
2022-09-23T00:35:25.412Z,76.37
2022-09-23T00:37:51.954Z,76.93
2022-09-23T00:40:18.692Z,76.51
2022-09-23T00:42:47.778Z,76.31
2022-09-23T00:45:14.276Z,77.18
2022-09-23T00:48:01.352Z,77.50
2022-09-23T00:50:35.251Z,77.30
2022-09-23T00:53:05.582Z,77.75
2022-09-23T00:55:46.203Z,77.38
2022-09-23T00:58:17.776Z,77.92
2022-09-23T01:00:46.439Z,78.28
2022-09-23T01:03:13.895Z,78.68
2022-09-23T01:05:42.540Z,78.49
2022-09-23T01:08:11.943Z,78.91
2022-09-23T01:10:52.789Z,77.80
2022-09-23T01:13:37.993Z,78.70
2022-09-23T01:16:07.388Z,78.36
2022-09-23T01:18:37.310Z,78.17
2022-09-23T01:21:29.788Z,77.51
2022-09-23T01:24:21.690Z,77.30
2022-09-23T01:27:06.466Z,77.38
2022-09-23T01:29:51.577Z,76.19
2022-09-23T01:32:25.201Z,75.83
2022-09-23T01:35:14.287Z,75.14
2022-09-23T01:38:00.865Z,76.62
2022-09-23T01:40:45.893Z,75.98
2022-09-23T01:43:26.007Z,74.29
2022-09-23T01:45:59.859Z,75.64
2022-09-23T01:48:49.925Z,76.38
2022-09-23T01:51:29.261Z,76.96
2022-09-23T01:54:22.483Z,77.06
2022-09-23T01:56:52.306Z,76.95
2022-09-23T01:59:26.329Z,76.75
2022-09-23T02:02:03.715Z,77.03
2022-09-23T02:04:40.140Z,76.90
2022-09-23T02:07:15.144Z,75.55
2022-09-23T02:09:48.996Z,76.97
2022-09-23T02:12:20.278Z,75.91
2022-09-23T02:15:29.104Z,75.01
2022-09-23T02:18:03.317Z,74.42
2022-09-23T02:20:33.861Z,73.98
2022-09-23T02:23:07.566Z,74.25
2022-09-23T02:25:45.068Z,74.08
2022-09-23T02:28:19.005Z,74.61
2022-09-23T02:30:51.697Z,73.69
2022-09-23T02:33:36.858Z,72.92
2022-09-23T02:36:11.747Z,72.84
2022-09-23T02:38:49.900Z,73.01
2022-09-23T02:41:32.287Z,73.27
2022-09-23T02:44:12.268Z,73.23
2022-09-23T02:46:39.193Z,72.89
2022-09-23T02:49:17.476Z,73.65
2022-09-23T02:51:44.777Z,73.58
2022-09-23T02:54:16.623Z,74.36
2022-09-23T02:56:43.124Z,74.59
2022-09-23T02:59:10.929Z,73.66
2022-09-23T03:02:05.066Z,72.73
2022-09-23T03:04:58.458Z,73.01
2022-09-23T03:07:50.964Z,72.57
2022-09-23T03:10:35.875Z,71.57
2022-09-23T03:13:47.977Z,72.69
2022-09-23T03:16:31.829Z,72.54
2022-09-23T03:19:13.192Z,71.68
2022-09-23T03:22:07.205Z,71.43
2022-09-23T03:24:36.114Z,71.28
2022-09-23T03:27:05.309Z,71.07
2022-09-23T03:29:33.928Z,70.07
2022-09-23T03:32:00.786Z,70.11
2022-09-23T03:34:31.400Z,70.00
2022-09-23T03:37:07.811Z,70.51
2022-09-23T03:39:36.970Z,72.02
2022-09-23T03:42:30.066Z,72.53
2022-09-23T03:44:57.464Z,74.19
2022-09-23T03:47:28.742Z,75.65
2022-09-23T03:49:56.730Z,76.94
2022-09-23T03:52:25.302Z,76.82
2022-09-23T03:54:52.766Z,76.46
2022-09-23T03:57:23.889Z,75.81
2022-09-23T03:59:51.410Z,75.03
2022-09-23T04:02:19.643Z,72.38
2022-09-23T04:04:46.188Z,71.68
2022-09-23T04:07:13.557Z,71.92
2022-09-23T04:09:40.462Z,70.50
2022-09-23T04:12:07.604Z,69.75
2022-09-23T04:14:34.139Z,70.14
2022-09-23T04:17:00.621Z,71.02
2022-09-23T04:19:27.133Z,72.05
2022-09-23T04:21:53.664Z,71.30
2022-09-23T04:24:20.464Z,71.56
2022-09-23T04:26:51.344Z,70.54
2022-09-23T04:29:17.978Z,71.17
2022-09-23T04:31:44.619Z,71.85
2022-09-23T04:34:11.309Z,70.90
2022-09-23T04:36:37.937Z,71.33
2022-09-23T04:39:05.652Z,71.47
2022-09-23T04:41:32.188Z,73.89
2022-09-23T04:43:58.730Z,73.39
2022-09-23T04:46:25.417Z,74.19
2022-09-23T04:48:52.120Z,75.67
2022-09-23T04:51:21.303Z,75.03
2022-09-23T04:53:50.607Z,73.89
2022-09-23T04:56:20.436Z,72.71
2022-09-23T04:58:47.947Z,72.01
2022-09-23T05:01:23.831Z,72.92
2022-09-23T05:03:52.099Z,72.95
2022-09-23T05:06:20.407Z,73.29
2022-09-23T05:08:50.018Z,73.64
2022-09-23T05:11:17.919Z,75.66
2022-09-23T05:13:46.729Z,76.51
2022-09-23T05:16:13.664Z,75.87
2022-09-23T05:18:42.870Z,76.03
2022-09-23T05:21:11.388Z,75.85
2022-09-23T05:23:38.613Z,75.71
2022-09-23T05:26:08.457Z,75.76
2022-09-23T05:28:37.425Z,75.84
2022-09-23T05:31:05.305Z,75.80
2022-09-23T05:33:33.206Z,76.26
2022-09-23T05:36:01.238Z,76.11
2022-09-23T05:38:29.325Z,75.32
2022-09-23T05:41:00.945Z,73.44
2022-09-23T05:43:27.566Z,72.13
2022-09-23T05:46:09.364Z,70.90
2022-09-23T05:48:37.428Z,71.94
2022-09-23T05:51:09.069Z,71.84
2022-09-23T05:53:37.026Z,71.43
2022-09-23T05:58:31.148Z,68.46
2022-09-23T06:00:58.034Z,64.33
2022-09-23T06:03:25.611Z,61.91
2022-09-23T06:05:55.949Z,60.27
2022-09-23T06:08:23.478Z,60.14
2022-09-23T06:10:54.377Z,61.53
2022-09-23T06:13:21.224Z,61.82
2022-09-23T06:15:48.542Z,61.13
2022-09-23T06:18:15.165Z,60.92
2022-09-23T06:20:41.695Z,60.04
2022-09-23T06:23:10.961Z,59.81
2022-09-23T06:25:40.708Z,59.36
2022-09-23T06:28:10.773Z,58.69
2022-09-23T06:30:37.307Z,56.45
2022-09-23T06:33:03.799Z,58.48
2022-09-23T06:35:32.512Z,57.39
2022-09-23T06:37:59.077Z,60.88
2022-09-23T06:40:25.725Z,56.49
2022-09-23T06:42:59.044Z,54.04
2022-09-23T06:45:25.953Z,54.69
2022-09-23T06:47:56.854Z,52.08
2022-09-23T06:50:28.043Z,57.90
2022-09-23T06:52:56.323Z,53.88
2022-09-23T06:55:24.857Z,54.21
2022-09-23T06:57:51.278Z,48.39
2022-09-23T07:00:18.410Z,56.10
2022-09-23T07:02:45.196Z,44.96
2022-09-23T07:05:12.541Z,52.62
2022-09-23T07:07:39.418Z,46.52
2022-09-23T07:10:07.227Z,44.22
2022-09-23T07:12:33.896Z,53.25
2022-09-23T07:15:00.418Z,50.06
2022-09-23T07:17:27.070Z,52.55
2022-09-23T07:19:54.944Z,47.50
2022-09-23T07:22:26.494Z,47.84
2022-09-23T07:24:56.829Z,40.74
2022-09-23T07:27:25.052Z,52.59
2022-09-23T07:29:52.490Z,42.61
2022-09-23T07:32:22.075Z,43.13
2022-09-23T07:34:49.187Z,51.00
2022-09-23T07:37:17.287Z,42.43
2022-09-23T07:39:44.549Z,43.05
2022-09-23T07:42:13.267Z,46.98
2022-09-23T07:44:45.203Z,40.42
2022-09-23T07:47:11.677Z,42.84
2022-09-23T07:49:38.467Z,43.82
2022-09-23T07:52:05.167Z,43.79
2022-09-23T07:54:32.562Z,40.97
2022-09-23T07:56:59.830Z,39.94
2022-09-23T07:59:27.250Z,39.81
2022-09-23T08:01:54.911Z,42.94
2022-09-23T08:04:22.963Z,44.34
2022-09-23T08:06:50.986Z,34.50
2022-09-23T08:09:19.483Z,45.92
2022-09-23T08:11:46.512Z,44.37
2022-09-23T08:14:14.556Z,37.08
2022-09-23T08:16:41.194Z,35.80
2022-09-23T08:19:08.584Z,43.55
2022-09-23T08:21:35.272Z,40.94
2022-09-23T08:24:01.965Z,42.86
2022-09-23T08:26:28.665Z,37.70
2022-09-23T08:28:56.452Z,36.27
2022-09-23T08:31:23.164Z,35.88
2022-09-23T08:33:59.607Z,33.95
2022-09-23T08:36:26.370Z,36.02
2022-09-23T08:38:53.132Z,35.03
2022-09-23T08:42:04.027Z,34.51
2022-09-23T08:44:57.099Z,36.00
2022-09-23T08:47:28.127Z,36.12
2022-09-23T08:50:02.774Z,37.67
2022-09-23T08:52:35.859Z,37.24
2022-09-23T08:55:04.304Z,38.37
2022-09-23T08:58:24.854Z,32.42
2022-09-23T09:00:59.746Z,36.11
2022-09-23T09:03:36.683Z,34.06
2022-09-23T09:06:03.445Z,37.41
2022-09-23T09:08:36.663Z,34.77
2022-09-23T09:11:03.417Z,31.77
2022-09-23T09:13:33.305Z,35.02
2022-09-23T09:16:55.658Z,31.08
2022-09-23T09:19:20.959Z,30.22
2022-09-23T09:21:53.614Z,31.43
2022-09-23T09:24:33.956Z,29.10
2022-09-23T09:27:12.740Z,33.20
2022-09-23T09:29:49.904Z,32.46
2022-09-23T09:32:35.915Z,28.95
2022-09-23T09:35:15.901Z,29.70
2022-09-23T09:37:47.576Z,28.96
2022-09-23T09:40:20.334Z,35.05
2022-09-23T09:42:49.607Z,33.72
2022-09-23T09:45:57.808Z,30.27
2022-09-23T09:48:40.079Z,32.32
2022-09-23T09:51:24.249Z,27.94
2022-09-23T09:53:55.073Z,29.74
2022-09-23T09:56:32.263Z,28.57
2022-09-23T09:59:13.745Z,31.35
2022-09-23T10:01:40.395Z,30.98
2022-09-23T10:04:23.199Z,26.81
2022-09-23T10:07:07.145Z,29.31
2022-09-23T10:09:36.821Z,32.07
2022-09-23T10:12:14.866Z,28.97
2022-09-23T10:14:52.544Z,28.36
2022-09-23T10:17:32.945Z,28.53
2022-09-23T10:20:09.061Z,28.32
2022-09-23T10:22:39.713Z,27.66
2022-09-23T10:25:17.258Z,29.02
2022-09-23T10:27:45.511Z,29.50
2022-09-23T10:30:22.374Z,29.05
2022-09-23T10:32:50.862Z,30.15
2022-09-23T10:35:24.452Z,30.43
2022-09-23T10:37:55.751Z,29.71
2022-09-23T10:40:59.304Z,29.10
2022-09-23T10:44:09.401Z,29.46
2022-09-23T10:46:45.953Z,29.81
2022-09-23T10:49:44.849Z,30.93
2022-09-23T10:52:32.736Z,32.34
2022-09-23T10:55:07.494Z,29.55
2022-09-23T10:57:55.254Z,30.70
2022-09-23T11:00:53.187Z,30.13
2022-09-23T11:03:40.912Z,31.44
2022-09-23T11:06:33.697Z,29.93
2022-09-23T11:09:21.257Z,31.11
2022-09-23T11:11:54.884Z,32.38
2022-09-23T11:14:30.707Z,31.88
2022-09-23T11:17:06.054Z,31.95
2022-09-23T11:20:04.685Z,32.78
2022-09-23T11:23:17.044Z,32.79
2022-09-23T11:25:59.909Z,32.15
2022-09-23T11:28:55.353Z,32.36
2022-09-23T11:32:02.801Z,30.44
2022-09-23T11:34:52.567Z,32.67
2022-09-23T11:37:29.521Z,32.02
2022-09-23T11:40:17.046Z,31.00
2022-09-23T11:42:52.987Z,31.70
2022-09-23T11:45:27.640Z,31.50
2022-09-23T11:48:13.952Z,32.58
2022-09-23T11:50:58.973Z,33.04
2022-09-23T11:53:47.210Z,31.19
2022-09-23T11:56:59.480Z,30.41
2022-09-23T11:59:51.796Z,31.77
2022-09-23T12:02:30.899Z,31.96
2022-09-23T12:05:08.389Z,31.36
2022-09-23T12:08:02.895Z,31.08
2022-09-23T12:10:54.144Z,33.35
2022-09-23T12:13:29.097Z,32.62
2022-09-23T12:16:26.041Z,32.15
2022-09-23T12:19:23.085Z,33.35
2022-09-23T12:21:52.116Z,31.95
2022-09-23T12:24:38.390Z,31.53
2022-09-23T12:27:10.987Z,31.48
2022-09-23T12:29:41.072Z,30.77
2022-09-23T12:32:11.397Z,31.07
2022-09-23T12:34:49.302Z,31.11
2022-09-23T12:37:34.142Z,32.60
2022-09-23T12:40:08.482Z,31.89
2022-09-23T12:42:41.444Z,30.95
2022-09-23T12:45:18.419Z,32.30
2022-09-23T12:47:46.341Z,32.26
2022-09-23T12:50:59.452Z,32.70
2022-09-23T12:53:35.464Z,32.83
2022-09-23T12:56:19.483Z,31.03
2022-09-23T12:58:50.237Z,33.05
2022-09-23T13:01:21.577Z,32.05
2022-09-23T13:04:18.335Z,32.16
2022-09-23T13:07:07.142Z,31.77
2022-09-23T13:09:42.745Z,32.92
2022-09-23T13:12:32.864Z,31.66
2022-09-23T13:15:03.622Z,32.22
2022-09-23T13:17:37.841Z,32.40
2022-09-23T13:20:26.069Z,31.46
2022-09-23T13:22:52.750Z,32.70
2022-09-23T13:25:26.755Z,32.08
2022-09-23T13:28:01.151Z,32.32
2022-09-23T13:30:28.323Z,31.07
2022-09-23T13:33:16.330Z,32.46
2022-09-23T13:35:51.704Z,33.17
2022-09-23T13:38:26.036Z,33.52
2022-09-23T13:41:01.960Z,32.60
2022-09-23T13:43:31.856Z,32.20
2022-09-23T13:46:01.014Z,32.98
2022-09-23T13:48:28.532Z,32.71
2022-09-23T13:50:56.167Z,32.79
2022-09-23T13:53:22.735Z,33.03
2022-09-23T13:56:13.012Z,33.21
2022-09-23T13:58:39.793Z,33.60
2022-09-23T14:01:21.076Z,34.40
2022-09-23T14:03:47.632Z,33.21
2022-09-23T14:06:16.354Z,33.96
2022-09-23T14:08:48.252Z,33.71
2022-09-23T14:11:42.512Z,33.23
2022-09-23T14:14:14.891Z,33.81
2022-09-23T14:16:42.370Z,33.83
2022-09-23T14:19:19.091Z,33.95
2022-09-23T14:21:51.471Z,34.33
2022-09-23T14:24:19.882Z,33.52
2022-09-23T14:27:06.490Z,34.13
2022-09-23T14:29:35.969Z,33.79
2022-09-23T14:32:06.586Z,34.82
2022-09-23T14:34:52.282Z,34.53
2022-09-23T14:37:37.351Z,34.39
2022-09-23T14:40:09.431Z,34.33
2022-09-23T14:42:43.708Z,34.93
2022-09-23T14:45:25.557Z,34.79
2022-09-23T14:47:58.643Z,35.04
2022-09-23T14:50:39.329Z,33.94
2022-09-23T14:53:28.600Z,35.06
2022-09-23T14:56:07.861Z,34.73
2022-09-23T14:58:54.444Z,35.11
2022-09-23T15:01:35.820Z,35.10
2022-09-23T15:04:14.617Z,34.49
2022-09-23T15:06:46.871Z,33.61
2022-09-23T15:09:20.674Z,33.77
2022-09-23T15:11:48.251Z,34.58
2022-09-23T15:14:36.623Z,33.84
2022-09-23T15:17:04.233Z,34.44
2022-09-23T15:19:31.634Z,33.81
2022-09-23T15:21:58.378Z,33.99
2022-09-23T15:25:16.678Z,34.81
2022-09-23T15:28:15.846Z,34.93
2022-09-23T15:30:42.792Z,33.73
2022-09-23T15:33:14.903Z,34.26
2022-09-23T15:35:47.576Z,34.79
2022-09-23T15:38:14.297Z,34.92
2022-09-23T15:40:41.422Z,34.42
2022-09-23T15:43:21.733Z,33.54
2022-09-23T15:45:51.970Z,34.64
2022-09-23T15:48:27.834Z,34.72
2022-09-23T15:50:54.815Z,35.33
2022-09-23T15:53:27.162Z,35.73
2022-09-23T15:55:54.301Z,35.00
2022-09-23T15:58:22.650Z,35.64
2022-09-23T16:00:56.336Z,35.12
2022-09-23T16:03:28.630Z,35.25
2022-09-23T16:06:00.693Z,35.03
2022-09-23T16:08:28.726Z,35.08
2022-09-23T16:10:55.504Z,35.20
2022-09-23T16:13:22.276Z,35.93
2022-09-23T16:15:48.938Z,35.39
2022-09-23T16:18:15.592Z,35.66
2022-09-23T16:20:47.750Z,35.86
2022-09-23T16:23:37.106Z,35.84
2022-09-23T16:26:08.454Z,36.69
2022-09-23T16:28:35.055Z,36.53
2022-09-23T16:31:01.689Z,37.56
2022-09-23T16:33:28.228Z,36.89
2022-09-23T16:35:55.425Z,37.15
2022-09-23T16:38:21.982Z,37.11
2022-09-23T16:40:48.567Z,37.46
2022-09-23T16:43:15.289Z,38.49
2022-09-23T16:45:41.879Z,37.91
2022-09-23T16:48:09.044Z,37.77
2022-09-23T16:50:35.589Z,37.42
2022-09-23T16:53:02.150Z,40.41
2022-09-23T16:55:28.934Z,39.38
2022-09-23T16:57:55.725Z,37.31
2022-09-23T17:00:41.947Z,38.46
2022-09-23T17:03:30.886Z,38.88
2022-09-23T17:05:58.379Z,39.45
2022-09-23T17:08:24.906Z,39.14
2022-09-23T17:10:59.324Z,39.36
2022-09-23T17:13:27.378Z,40.16
2022-09-23T17:15:54.788Z,40.04
2022-09-23T17:18:21.690Z,40.97
2022-09-23T17:20:59.530Z,40.70
2022-09-23T17:23:44.885Z,43.50
2022-09-23T17:26:12.547Z,41.31
2022-09-23T17:28:39.090Z,41.24
2022-09-23T17:31:07.280Z,42.11
2022-09-23T17:33:37.923Z,42.21
2022-09-23T17:36:09.420Z,44.57
2022-09-23T17:38:36.717Z,42.89
2022-09-23T17:41:04.883Z,46.62
2022-09-23T17:43:33.596Z,44.52
2022-09-23T17:46:07.115Z,48.64
2022-09-23T17:48:35.877Z,46.00
2022-09-23T17:51:07.020Z,46.77
2022-09-23T17:53:39.109Z,45.86
2022-09-23T17:56:20.659Z,47.26
2022-09-23T17:58:48.924Z,46.33
2022-09-23T18:01:21.814Z,48.53
2022-09-23T18:03:52.872Z,50.22
2022-09-23T18:06:22.209Z,47.80
2022-09-23T18:08:50.615Z,49.44
2022-09-23T18:11:17.197Z,50.74
2022-09-23T18:13:51.791Z,51.52
2022-09-23T18:16:20.097Z,50.83
2022-09-23T18:18:56.165Z,52.88
2022-09-23T18:21:24.725Z,52.68
2022-09-23T18:23:51.687Z,49.38
2022-09-23T18:29:17.027Z,53.03
2022-09-23T18:31:47.674Z,53.21
2022-09-23T18:34:19.852Z,53.45
2022-09-23T18:36:46.793Z,53.14
2022-09-23T18:39:13.622Z,52.56
2022-09-23T18:41:46.627Z,52.67
2022-09-23T18:44:14.798Z,52.59
2022-09-23T18:46:47.551Z,51.46
2022-09-23T18:49:33.660Z,50.54
2022-09-23T18:52:00.329Z,49.48
2022-09-23T18:54:28.894Z,51.59
2022-09-23T18:56:56.042Z,52.03
2022-09-23T18:59:25.963Z,54.02
2022-09-23T19:01:55.564Z,52.10
2022-09-23T19:04:26.081Z,53.41
2022-09-23T19:06:54.895Z,52.29
2022-09-23T19:09:21.543Z,54.85
2022-09-23T19:11:52.195Z,54.23
2022-09-23T19:14:20.926Z,53.63
2022-09-23T19:16:52.140Z,55.18
2022-09-23T19:19:20.320Z,54.13
2022-09-23T19:21:48.955Z,57.11
2022-09-23T19:24:19.887Z,55.55
2022-09-23T19:26:48.649Z,58.80
2022-09-23T19:29:24.301Z,58.58
2022-09-23T19:31:51.167Z,58.35
2022-09-23T19:34:28.797Z,58.18
2022-09-23T19:36:57.965Z,58.69
2022-09-23T19:39:32.193Z,58.55
2022-09-23T19:42:02.180Z,58.28
2022-09-23T19:44:29.978Z,58.05
2022-09-23T19:46:59.487Z,57.48
2022-09-23T19:49:30.762Z,56.86
2022-09-23T19:51:57.736Z,55.17
2022-09-23T19:54:26.759Z,56.22
2022-09-23T19:56:53.984Z,55.25
2022-09-23T19:59:21.142Z,56.33
2022-09-23T20:01:51.786Z,55.82
2022-09-23T20:04:22.423Z,55.18
2022-09-23T20:06:50.268Z,55.16
2022-09-23T20:09:22.500Z,55.50
2022-09-23T20:11:50.581Z,55.22
2022-09-23T20:14:19.824Z,56.72
2022-09-23T20:16:47.140Z,57.74
2022-09-23T20:19:14.374Z,57.57
2022-09-23T20:21:46.276Z,57.84
2022-09-23T20:24:16.848Z,56.98
2022-09-23T20:27:05.062Z,58.02
2022-09-23T20:29:33.223Z,58.58
2022-09-23T20:32:00.437Z,57.50
2022-09-23T20:34:31.901Z,57.31
2022-09-23T20:37:00.944Z,58.30
2022-09-23T20:39:30.136Z,57.57
2022-09-23T20:41:56.928Z,57.98
2022-09-23T20:44:24.652Z,57.18
2022-09-23T20:46:51.595Z,58.16
2022-09-23T20:49:20.885Z,57.61
2022-09-23T20:51:48.921Z,56.89
2022-09-23T20:54:19.594Z,56.36
2022-09-23T20:56:47.941Z,55.24
2022-09-23T20:59:17.598Z,56.27
2022-09-23T21:01:47.697Z,56.39
2022-09-23T21:04:15.824Z,54.88
2022-09-23T21:06:42.470Z,55.47
2022-09-23T21:09:09.106Z,55.58
2022-09-23T21:11:35.688Z,54.41
2022-09-23T21:14:04.340Z,55.17
2022-09-23T21:16:31.105Z,56.09
2022-09-23T21:18:58.928Z,55.71
2022-09-23T21:21:26.389Z,54.65
2022-09-23T21:23:53.129Z,55.44
2022-09-23T21:26:24.931Z,55.69
2022-09-23T21:28:57.795Z,55.41
2022-09-23T21:31:32.289Z,55.83
2022-09-23T21:34:01.475Z,56.11
2022-09-23T21:36:30.616Z,55.96
2022-09-23T21:38:58.101Z,54.93
2022-09-23T21:41:25.555Z,55.83
2022-09-23T21:43:52.204Z,55.40
2022-09-23T21:46:20.590Z,56.81
2022-09-23T21:48:51.929Z,56.28
2022-09-23T21:51:24.273Z,56.98
2022-09-23T21:53:52.431Z,58.13
2022-09-23T21:56:26.605Z,57.82
2022-09-23T21:58:56.135Z,58.34
2022-09-23T22:01:28.480Z,56.98
2022-09-23T22:03:55.237Z,58.35
2022-09-23T22:06:24.432Z,57.68
2022-09-23T22:08:54.322Z,57.07
2022-09-23T22:11:42.493Z,58.50
2022-09-23T22:14:12.651Z,57.83
2022-09-23T22:16:40.311Z,56.21
2022-09-23T22:19:08.551Z,56.55
2022-09-23T22:21:38.120Z,57.20
2022-09-23T22:24:10.421Z,56.80
2022-09-23T22:26:42.275Z,57.33
2022-09-23T22:29:32.385Z,57.40
2022-09-23T22:32:19.476Z,58.69
2022-09-23T22:34:50.145Z,58.35
2022-09-23T22:37:21.300Z,58.06
2022-09-23T22:39:47.843Z,58.02
2022-09-23T22:42:14.435Z,57.17
2022-09-23T22:44:41.142Z,56.47
2022-09-23T22:47:08.149Z,56.71
2022-09-23T22:49:35.069Z,56.66
2022-09-23T22:52:04.030Z,55.89
2022-09-23T22:54:33.934Z,57.16
2022-09-23T22:57:03.434Z,57.28
2022-09-23T22:59:30.218Z,57.39
2022-09-23T23:02:00.218Z,56.92
2022-09-23T23:04:27.741Z,57.12
2022-09-23T23:06:54.251Z,58.11
2022-09-23T23:09:20.814Z,57.98
2022-09-23T23:11:47.594Z,57.49
2022-09-23T23:14:17.259Z,57.96
2022-09-23T23:22:05.026Z,57.14
2022-09-23T23:24:31.611Z,56.53
2022-09-23T23:26:58.368Z,56.18
2022-09-23T23:29:24.982Z,56.59
2022-09-23T23:31:51.595Z,57.28
2022-09-23T23:34:20.524Z,57.05
2022-09-23T23:36:54.405Z,57.08
2022-09-23T23:39:26.108Z,57.86
2022-09-23T23:41:57.729Z,57.10
2022-09-23T23:44:25.835Z,56.78
2022-09-23T23:46:53.690Z,57.83
2022-09-23T23:49:20.340Z,58.24
2022-09-23T23:51:47.894Z,57.54
2022-09-23T23:54:15.402Z,57.40
2022-09-23T23:56:42.503Z,56.43
2022-09-23T23:59:09.128Z,56.73
